createdAt,value
2022-08-02T00:03:11.618Z,14.40
2022-08-02T00:09:15.750Z,14.85
2022-08-02T00:15:20.513Z,13.45
2022-08-02T00:21:23.889Z,14.98
2022-08-02T00:27:27.305Z,12.30
2022-08-02T00:34:28.466Z,14.57
2022-08-02T00:39:55.429Z,16.65
2022-08-02T00:46:02.966Z,12.18
2022-08-02T00:52:09.278Z,11.77
2022-08-02T00:58:12.735Z,12.20
2022-08-02T01:04:16.169Z,12.60
2022-08-02T01:10:34.831Z,11.70
2022-08-02T01:16:39.753Z,13.43
2022-08-02T01:23:02.362Z,13.18
2022-08-02T01:29:10.600Z,11.82
2022-08-02T01:35:16.535Z,13.45
2022-08-02T01:41:21.709Z,12.65
2022-08-02T01:47:28.129Z,14.90
2022-08-02T01:53:32.417Z,13.43
2022-08-02T01:59:36.965Z,15.38
2022-08-02T02:05:42.617Z,14.57
2022-08-02T02:12:06.122Z,14.05
2022-08-02T02:18:13.706Z,16.05
2022-08-02T02:24:18.783Z,13.38
2022-08-02T02:30:22.408Z,14.48
2022-08-02T02:36:26.314Z,10.05
2022-08-02T02:42:32.689Z,10.65
2022-08-02T02:48:37.105Z,10.13
2022-08-02T02:54:40.770Z,11.07
2022-08-02T03:01:03.396Z,10.30
2022-08-02T03:07:06.848Z,10.30
2022-08-02T03:13:10.228Z,9.65
2022-08-02T03:19:15.351Z,8.90
2022-08-02T03:25:19.833Z,8.88
2022-08-02T03:31:23.457Z,12.63
2022-08-02T03:37:28.718Z,10.98
2022-08-02T03:43:32.495Z,10.40
2022-08-02T03:49:36.074Z,10.75
2022-08-02T03:55:41.343Z,11.63
2022-08-02T04:01:44.701Z,11.20
2022-08-02T04:08:32.724Z,9.82
2022-08-02T04:14:14.334Z,8.88
2022-08-02T04:20:20.347Z,8.63
2022-08-02T04:26:28.249Z,8.35
2022-08-02T04:32:33.616Z,10.82
2022-08-02T04:38:36.981Z,10.32
2022-08-02T04:44:40.349Z,8.55
2022-08-02T04:50:45.383Z,9.60
2022-08-02T04:56:49.145Z,12.82
2022-08-02T05:02:54.172Z,10.90
2022-08-02T05:08:59.208Z,10.68
2022-08-02T05:15:02.765Z,11.05
2022-08-02T05:21:06.109Z,10.02
2022-08-02T05:27:17.357Z,11.23
2022-08-02T05:33:25.443Z,9.52
2022-08-02T05:39:31.786Z,10.43
2022-08-02T05:45:37.316Z,9.48
2022-08-02T05:51:41.643Z,9.57
2022-08-02T05:57:49.910Z,12.27
2022-08-02T06:03:56.226Z,10.52
2022-08-02T06:10:00.623Z,7.53
2022-08-02T06:16:04.986Z,9.40
2022-08-02T06:22:33.376Z,6.80
2022-08-02T06:28:39.643Z,7.60
2022-08-02T06:34:43.652Z,7.28
2022-08-02T06:40:50.552Z,4.75
2022-08-02T06:47:11.841Z,7.13
2022-08-02T06:53:16.138Z,5.03
2022-08-02T06:59:20.869Z,4.10
2022-08-02T07:05:24.815Z,2.72
2022-08-02T07:11:28.332Z,3.53
2022-08-02T07:17:33.140Z,4.35
2022-08-02T07:23:36.534Z,2.97
2022-08-02T07:29:46.221Z,3.28
2022-08-02T07:35:52.063Z,2.80
2022-08-02T07:41:55.683Z,3.47
2022-08-02T07:47:59.088Z,3.50
2022-08-02T07:54:04.818Z,2.72
2022-08-02T08:00:09.718Z,2.55
2022-08-02T08:06:13.180Z,3.22
2022-08-02T08:12:18.125Z,2.63
2022-08-02T08:18:21.825Z,3.75
2022-08-02T08:24:25.204Z,2.15
2022-08-02T08:30:30.040Z,3.17
2022-08-02T08:36:33.474Z,2.60
2022-08-02T08:42:38.076Z,4.38
2022-08-02T08:48:45.479Z,3.30
2022-08-02T08:54:50.083Z,3.65
2022-08-02T09:00:53.827Z,3.25
2022-08-02T09:06:59.155Z,2.80
2022-08-02T09:13:38.591Z,3.90
2022-08-02T09:19:31.749Z,2.08
2022-08-02T09:25:37.146Z,3.13
2022-08-02T09:31:49.597Z,3.67
2022-08-02T09:37:53.436Z,1.65
2022-08-02T09:44:05.334Z,1.67
2022-08-02T09:50:13.396Z,2.05
2022-08-02T09:56:30.229Z,2.17
2022-08-02T10:02:40.439Z,3.10
2022-08-02T10:08:44.658Z,2.58
2022-08-02T10:14:48.042Z,2.42
2022-08-02T10:20:54.300Z,1.90
2022-08-02T10:26:57.969Z,2.08
2022-08-02T10:33:02.194Z,3.17
2022-08-02T10:39:07.330Z,3.55
2022-08-02T10:45:11.378Z,1.92
2022-08-02T10:51:14.854Z,2.70
2022-08-02T10:57:23.776Z,4.22
2022-08-02T11:03:39.722Z,1.65
2022-08-02T11:09:44.041Z,3.00
2022-08-02T11:15:57.075Z,2.40
2022-08-02T11:22:04.186Z,2.60
2022-08-02T11:28:12.548Z,3.33
2022-08-02T11:34:36.890Z,2.50
2022-08-02T11:40:41.550Z,2.80
2022-08-02T11:46:45.054Z,2.30
2022-08-02T11:52:49.979Z,3.17
2022-08-02T11:59:03.852Z,2.17
2022-08-02T12:05:09.007Z,1.85
2022-08-02T12:11:14.244Z,3.83
2022-08-02T12:17:41.992Z,3.72
2022-08-02T12:24:00.093Z,3.58
2022-08-02T12:30:08.272Z,4.65
2022-08-02T12:36:16.469Z,2.13
2022-08-02T12:42:19.930Z,2.13
2022-08-02T12:48:38.330Z,1.50
2022-08-02T12:54:43.849Z,3.30
2022-08-02T13:00:54.010Z,2.55
2022-08-02T13:06:59.613Z,3.30
2022-08-02T13:13:02.996Z,4.82
2022-08-02T13:19:06.389Z,2.80
2022-08-02T13:25:11.596Z,2.22
2022-08-02T13:31:36.001Z,1.48
2022-08-02T13:37:41.824Z,3.95
2022-08-02T13:43:53.669Z,3.53
2022-08-02T13:49:59.107Z,2.88
2022-08-02T13:56:02.998Z,2.38
2022-08-02T14:02:07.906Z,3.58
2022-08-02T14:08:16.183Z,2.90
2022-08-02T14:14:20.161Z,3.22
2022-08-02T14:20:30.210Z,2.15
2022-08-02T14:26:33.850Z,5.13
2022-08-02T14:32:37.237Z,2.20
2022-08-02T14:38:41.985Z,4.25
2022-08-02T14:44:45.375Z,1.83
2022-08-02T14:50:49.050Z,2.15
2022-08-02T14:56:53.922Z,2.88
2022-08-02T15:02:57.342Z,2.15
2022-08-02T15:09:00.760Z,4.05
2022-08-02T15:15:05.782Z,2.33
2022-08-02T15:21:40.408Z,4.95
2022-08-02T15:27:33.870Z,4.63
2022-08-02T15:33:42.408Z,6.65
2022-08-02T15:39:45.770Z,2.85
2022-08-02T15:45:49.156Z,6.38
2022-08-02T15:51:54.580Z,3.22
2022-08-02T15:57:57.934Z,3.58
2022-08-02T16:04:01.633Z,2.78
2022-08-02T16:10:13.796Z,3.13
2022-08-02T16:16:17.290Z,2.55
2022-08-02T16:22:20.788Z,2.22
2022-08-02T16:28:25.683Z,4.45
2022-08-02T16:34:40.268Z,2.92
2022-08-02T16:40:52.434Z,2.05
2022-08-02T16:46:57.492Z,2.10
2022-08-02T16:53:07.560Z,2.40
2022-08-02T16:59:12.921Z,1.60
2022-08-02T17:05:17.783Z,1.33
2022-08-02T17:11:21.369Z,2.58
2022-08-02T17:17:34.068Z,2.70
2022-08-02T17:24:04.025Z,1.83
2022-08-02T17:30:02.954Z,1.15
2022-08-02T17:36:06.896Z,3.42
2022-08-02T17:42:19.717Z,1.00
2022-08-02T17:48:29.224Z,2.63
2022-08-02T17:54:40.260Z,1.90
2022-08-02T18:00:45.257Z,2.75
2022-08-02T18:06:49.343Z,2.53
2022-08-02T18:12:53.899Z,1.42
2022-08-02T18:19:03.109Z,2.53
2022-08-02T18:25:09.041Z,3.45
2022-08-02T18:31:22.364Z,2.95
2022-08-02T18:37:28.764Z,2.88
2022-08-02T18:43:46.268Z,3.10
2022-08-02T18:49:56.038Z,3.15
2022-08-02T18:56:03.934Z,1.10
2022-08-02T19:02:07.614Z,4.93
2022-08-02T19:08:11.113Z,2.92
2022-08-02T19:14:23.941Z,1.63
2022-08-02T19:20:33.414Z,3.03
2022-08-02T19:26:39.741Z,8.27
2022-08-02T19:32:59.492Z,7.95
2022-08-02T19:39:08.201Z,3.83
2022-08-02T19:45:13.964Z,7.28
2022-08-02T19:51:50.033Z,2.95
2022-08-02T19:57:42.755Z,7.40
2022-08-02T20:03:52.177Z,4.72
2022-08-02T20:09:57.890Z,6.15
2022-08-02T20:16:01.519Z,3.60
2022-08-02T20:22:05.648Z,4.13
2022-08-02T20:28:11.698Z,3.33
2022-08-02T20:34:16.463Z,3.90
2022-08-02T20:40:20.827Z,1.95
2022-08-02T20:46:25.593Z,2.22
2022-08-02T20:52:28.953Z,4.10
2022-08-02T20:58:33.646Z,5.18
2022-08-02T21:04:38.411Z,2.75
2022-08-02T21:10:50.226Z,5.32
2022-08-02T21:16:55.551Z,4.97
2022-08-02T21:23:00.580Z,3.22
2022-08-02T21:29:04.477Z,4.88
2022-08-02T21:35:09.705Z,3.08
2022-08-02T21:41:15.017Z,3.70
2022-08-02T21:47:26.823Z,5.57
2022-08-02T21:53:42.586Z,3.00
2022-08-02T21:59:48.117Z,6.78
2022-08-02T22:05:56.542Z,3.00
2022-08-02T22:11:59.930Z,4.93
2022-08-02T22:18:04.659Z,7.88
2022-08-02T22:24:13.048Z,3.00
2022-08-02T22:30:22.914Z,3.17
2022-08-02T22:36:32.135Z,1.52
2022-08-02T22:42:35.502Z,3.45
2022-08-02T22:48:40.046Z,3.35
2022-08-02T22:54:45.038Z,4.18
2022-08-02T23:00:48.422Z,2.25
2022-08-02T23:06:51.810Z,3.40
2022-08-02T23:12:59.122Z,4.10
2022-08-02T23:19:20.041Z,2.60
2022-08-02T23:25:23.705Z,6.60
2022-08-02T23:31:32.889Z,3.35
2022-08-02T23:37:59.522Z,4.18
2022-08-02T23:44:13.510Z,4.88
2022-08-02T23:50:19.147Z,4.28
2022-08-02T23:56:22.540Z,3.38
